createdAt,value
2023-02-23T00:01:28.496Z,25.10
2023-02-23T00:03:58.136Z,24.60
2023-02-23T00:06:27.945Z,24.90
2023-02-23T00:08:55.413Z,24.33
2023-02-23T00:11:23.611Z,27.45
2023-02-23T00:13:51.205Z,25.67
2023-02-23T00:16:22.343Z,26.38
2023-02-23T00:19:00.303Z,26.08
2023-02-23T00:21:32.862Z,26.02
2023-02-23T00:24:02.417Z,25.67
2023-02-23T00:26:35.097Z,27.77
2023-02-23T00:29:12.974Z,29.17
2023-02-23T00:31:40.314Z,27.17
2023-02-23T00:34:07.702Z,28.02
2023-02-23T00:36:36.008Z,26.17
2023-02-23T00:39:22.428Z,26.48
2023-02-23T00:41:52.353Z,25.05
2023-02-23T00:44:21.728Z,27.13
2023-02-23T00:46:51.372Z,25.13
2023-02-23T00:49:19.548Z,25.38
2023-02-23T00:51:47.012Z,25.35
2023-02-23T00:54:15.568Z,25.65
2023-02-23T00:56:43.301Z,23.90
2023-02-23T00:59:11.487Z,23.92
2023-02-23T01:01:41.892Z,23.58
2023-02-23T01:04:10.668Z,22.52
2023-02-23T01:06:39.049Z,22.60
2023-02-23T01:09:13.592Z,24.73
2023-02-23T01:11:41.754Z,28.80
2023-02-23T01:14:10.487Z,30.88
2023-02-23T01:16:38.935Z,30.58
2023-02-23T01:19:06.806Z,28.10
2023-02-23T01:21:38.204Z,26.45
2023-02-23T01:24:06.107Z,23.33
2023-02-23T01:26:36.170Z,24.67
2023-02-23T01:29:11.016Z,23.23
2023-02-23T01:31:41.043Z,23.75
2023-02-23T01:34:11.817Z,23.23
2023-02-23T01:36:40.629Z,21.60
2023-02-23T01:39:12.260Z,22.48
2023-02-23T01:41:42.351Z,23.25
2023-02-23T01:44:32.123Z,25.13
2023-02-23T01:46:59.442Z,23.15
2023-02-23T01:49:30.683Z,23.52
2023-02-23T01:52:13.581Z,22.40
2023-02-23T01:54:50.488Z,22.92
2023-02-23T01:57:21.365Z,23.45
2023-02-23T01:59:50.180Z,21.73
2023-02-23T02:02:27.568Z,20.77
2023-02-23T02:04:56.365Z,22.77
2023-02-23T02:07:28.204Z,22.60
2023-02-23T02:10:13.206Z,21.63
2023-02-23T02:12:54.008Z,23.08
2023-02-23T02:15:26.064Z,21.95
2023-02-23T02:18:47.248Z,21.65
2023-02-23T02:21:55.745Z,19.25
2023-02-23T02:24:23.012Z,20.85
2023-02-23T02:27:06.649Z,18.60
2023-02-23T02:30:10.431Z,18.52
2023-02-23T02:32:58.676Z,18.13
2023-02-23T02:35:56.932Z,17.15
2023-02-23T02:38:34.432Z,17.15
2023-02-23T02:41:08.952Z,17.67
2023-02-23T02:43:45.547Z,18.33
2023-02-23T02:46:22.450Z,16.70
2023-02-23T02:49:03.439Z,16.80
2023-02-23T02:51:44.951Z,15.80
2023-02-23T02:54:22.584Z,16.20
2023-02-23T02:56:52.570Z,15.68
2023-02-23T02:59:38.556Z,16.85
2023-02-23T03:02:25.412Z,17.25
2023-02-23T03:05:11.574Z,16.23
2023-02-23T03:08:24.685Z,15.95
2023-02-23T03:11:13.465Z,16.23
2023-02-23T03:14:56.798Z,16.67
2023-02-23T03:18:00.776Z,15.55
2023-02-23T03:20:53.107Z,17.02
2023-02-23T03:24:10.639Z,15.63
2023-02-23T03:27:02.225Z,15.73
2023-02-23T03:29:58.510Z,14.57
2023-02-23T03:32:54.217Z,15.45
2023-02-23T03:35:52.996Z,13.90
2023-02-23T03:38:44.954Z,14.25
2023-02-23T03:41:33.141Z,14.88
2023-02-23T03:44:25.051Z,15.48
2023-02-23T03:47:11.577Z,15.07
2023-02-23T03:49:59.076Z,14.00
2023-02-23T03:52:50.685Z,13.68
2023-02-23T03:55:41.748Z,13.13
2023-02-23T03:58:33.223Z,13.13
2023-02-23T04:01:22.460Z,13.27
2023-02-23T04:04:10.263Z,13.35
2023-02-23T04:07:01.755Z,12.77
2023-02-23T04:09:47.663Z,13.38
2023-02-23T04:12:53.332Z,13.00
2023-02-23T04:15:36.736Z,13.00
2023-02-23T04:18:05.696Z,12.95
2023-02-23T04:20:32.802Z,13.15
2023-02-23T04:23:00.149Z,14.73
2023-02-23T04:25:28.354Z,13.75
2023-02-23T04:27:55.625Z,15.30
2023-02-23T04:30:25.766Z,14.10
2023-02-23T04:32:53.232Z,14.27
2023-02-23T04:35:20.741Z,14.98
2023-02-23T04:37:48.075Z,15.02
2023-02-23T04:40:15.121Z,15.85
2023-02-23T04:42:42.577Z,14.80
2023-02-23T04:45:10.687Z,15.48
2023-02-23T04:47:38.539Z,15.23
2023-02-23T04:50:06.073Z,15.90
2023-02-23T04:52:34.932Z,14.68
2023-02-23T04:55:01.980Z,14.88
2023-02-23T04:57:29.255Z,14.20
2023-02-23T04:59:56.236Z,14.93
2023-02-23T05:02:24.339Z,13.68
2023-02-23T05:04:51.930Z,12.82
2023-02-23T05:07:19.188Z,14.35
2023-02-23T05:09:46.170Z,13.40
2023-02-23T05:12:14.278Z,13.40
2023-02-23T05:14:41.201Z,13.45
2023-02-23T05:17:08.916Z,12.93
2023-02-23T05:19:36.452Z,14.50
2023-02-23T05:22:04.019Z,15.02
2023-02-23T05:24:31.042Z,14.65
2023-02-23T05:26:58.927Z,15.07
2023-02-23T05:29:25.855Z,15.68
2023-02-23T05:31:53.243Z,14.30
2023-02-23T05:34:20.265Z,14.45
2023-02-23T05:36:47.721Z,15.27
2023-02-23T05:39:14.637Z,16.65
2023-02-23T05:41:41.978Z,16.55
2023-02-23T05:44:08.910Z,17.75
2023-02-23T05:46:36.709Z,19.88
2023-02-23T05:49:03.707Z,18.67
2023-02-23T05:51:33.861Z,18.83
2023-02-23T05:54:01.500Z,16.23
2023-02-23T05:56:28.789Z,16.95
2023-02-23T05:58:58.250Z,15.80
2023-02-23T06:01:26.626Z,14.95
2023-02-23T06:03:53.867Z,16.50
2023-02-23T06:06:22.304Z,15.60
2023-02-23T06:08:49.840Z,15.20
2023-02-23T06:11:17.889Z,14.52
2023-02-23T06:13:45.071Z,16.23
2023-02-23T06:16:12.456Z,15.55
2023-02-23T06:18:39.875Z,15.02
2023-02-23T06:21:07.221Z,15.23
2023-02-23T06:23:34.264Z,14.80
2023-02-23T06:26:02.295Z,15.32
2023-02-23T06:28:29.792Z,14.52
2023-02-23T06:30:57.660Z,14.77
2023-02-23T06:33:25.537Z,15.10
2023-02-23T06:35:52.853Z,15.82
2023-02-23T06:38:20.428Z,15.05
2023-02-23T06:40:47.886Z,15.85
2023-02-23T06:43:14.823Z,18.02
2023-02-23T06:45:42.128Z,17.10
2023-02-23T06:48:09.086Z,18.75
2023-02-23T06:50:36.440Z,19.52
2023-02-23T06:53:03.752Z,16.88
2023-02-23T06:55:31.111Z,19.63
2023-02-23T06:57:58.324Z,23.58
2023-02-23T07:00:25.681Z,21.40
2023-02-23T07:02:52.648Z,16.27
2023-02-23T07:05:20.125Z,16.80
2023-02-23T07:07:48.240Z,17.25
2023-02-23T07:10:15.821Z,16.80
2023-02-23T07:12:42.817Z,18.00
2023-02-23T07:15:10.734Z,16.77
2023-02-23T07:17:37.929Z,15.70
2023-02-23T07:20:05.780Z,15.57
2023-02-23T07:22:34.164Z,16.92
2023-02-23T07:25:01.589Z,16.35
2023-02-23T07:27:28.606Z,16.75
2023-02-23T07:29:55.947Z,17.65
2023-02-23T07:32:23.110Z,17.65
2023-02-23T07:34:52.210Z,14.85
2023-02-23T07:37:21.444Z,17.30
2023-02-23T07:39:48.895Z,16.80
2023-02-23T07:42:15.850Z,15.57
2023-02-23T07:44:43.263Z,16.23
2023-02-23T07:47:11.360Z,19.38
2023-02-23T07:49:38.813Z,20.02
2023-02-23T07:52:05.827Z,18.92
2023-02-23T07:54:33.649Z,18.40
2023-02-23T07:57:00.719Z,24.33
2023-02-23T07:59:27.962Z,20.33
2023-02-23T08:01:55.008Z,19.50
2023-02-23T08:04:22.559Z,21.67
2023-02-23T08:06:49.525Z,23.50
2023-02-23T08:09:16.883Z,25.50
2023-02-23T08:11:43.942Z,20.33
2023-02-23T08:14:11.394Z,17.00
2023-02-23T08:16:38.630Z,19.50
2023-02-23T08:19:06.046Z,18.98
2023-02-23T08:21:33.078Z,19.50
2023-02-23T08:24:00.448Z,18.60
2023-02-23T08:26:27.641Z,18.13
2023-02-23T08:28:55.355Z,18.98
2023-02-23T08:31:24.355Z,21.10
2023-02-23T08:33:53.043Z,19.50
2023-02-23T08:36:23.121Z,18.30
2023-02-23T08:38:50.746Z,19.88
2023-02-23T08:41:18.303Z,19.92
2023-02-23T08:43:45.874Z,23.77
2023-02-23T08:46:13.380Z,22.75
2023-02-23T08:48:40.852Z,20.45
2023-02-23T08:51:08.906Z,19.73
2023-02-23T08:53:36.565Z,18.95
2023-02-23T08:56:06.140Z,17.83
2023-02-23T08:58:35.973Z,16.30
2023-02-23T09:01:03.887Z,16.48
2023-02-23T09:03:32.968Z,17.08
2023-02-23T09:06:07.935Z,17.42
2023-02-23T09:08:35.522Z,16.48
2023-02-23T09:11:02.524Z,16.13
2023-02-23T09:13:30.168Z,16.42
2023-02-23T09:15:57.468Z,17.65
2023-02-23T09:18:27.838Z,16.35
2023-02-23T09:20:55.021Z,15.82
2023-02-23T09:23:24.117Z,17.13
2023-02-23T09:25:51.146Z,18.55
2023-02-23T09:28:19.889Z,17.77
2023-02-23T09:30:48.290Z,18.20
2023-02-23T09:33:17.119Z,18.30
2023-02-23T09:35:44.081Z,18.52
2023-02-23T09:38:11.489Z,18.95
2023-02-23T09:40:46.192Z,19.60
2023-02-23T09:43:26.657Z,19.45
2023-02-23T09:46:21.783Z,19.63
2023-02-23T09:48:49.503Z,20.13
2023-02-23T09:51:21.742Z,21.15
2023-02-23T09:53:59.476Z,21.40
2023-02-23T09:56:47.729Z,20.95
2023-02-23T09:59:18.023Z,21.80
2023-02-23T10:01:48.184Z,22.30
2023-02-23T10:04:32.253Z,22.08
2023-02-23T10:07:15.584Z,22.05
2023-02-23T10:10:04.149Z,23.13
2023-02-23T10:12:49.310Z,21.45
2023-02-23T10:15:42.118Z,22.10
2023-02-23T10:18:12.055Z,22.35
2023-02-23T10:21:04.806Z,23.48
2023-02-23T10:23:40.648Z,22.73
2023-02-23T10:26:15.407Z,22.33
2023-02-23T10:28:43.280Z,22.70
2023-02-23T10:31:25.946Z,23.90
2023-02-23T10:33:55.606Z,24.83
2023-02-23T10:36:40.974Z,24.85
2023-02-23T10:39:09.016Z,25.52
2023-02-23T10:41:37.658Z,25.65
2023-02-23T10:44:16.829Z,25.88
2023-02-23T10:46:49.258Z,25.00
2023-02-23T10:49:24.622Z,24.63
2023-02-23T10:51:53.028Z,25.02
2023-02-23T10:54:36.427Z,24.65
2023-02-23T10:59:31.753Z,23.35
2023-02-23T11:02:02.214Z,24.60
2023-02-23T11:04:34.992Z,26.30
2023-02-23T11:07:23.154Z,25.70
2023-02-23T11:09:51.648Z,25.48
2023-02-23T11:12:36.004Z,27.42
2023-02-23T11:15:35.212Z,26.30
2023-02-23T11:18:23.394Z,25.48
2023-02-23T11:20:51.710Z,24.30
2023-02-23T11:23:29.417Z,25.35
2023-02-23T11:26:01.953Z,24.95
2023-02-23T11:28:31.336Z,25.48
2023-02-23T11:31:12.832Z,25.55
2023-02-23T11:33:40.715Z,25.45
2023-02-23T11:36:36.222Z,26.58
2023-02-23T11:39:19.905Z,26.38
2023-02-23T11:41:47.022Z,26.25
2023-02-23T11:44:23.657Z,26.13
2023-02-23T11:46:52.198Z,26.90
2023-02-23T11:49:26.224Z,25.63
2023-02-23T11:51:54.707Z,25.45
2023-02-23T11:54:25.248Z,24.42
2023-02-23T11:56:55.154Z,25.63
2023-02-23T11:59:32.082Z,26.83
2023-02-23T12:02:19.260Z,26.02
2023-02-23T12:04:47.720Z,25.58
2023-02-23T12:07:52.500Z,27.25
2023-02-23T12:10:43.382Z,25.10
2023-02-23T12:13:19.527Z,25.75
2023-02-23T12:15:59.832Z,26.83
2023-02-23T12:18:35.600Z,26.58
2023-02-23T12:21:21.649Z,26.55
2023-02-23T12:23:51.402Z,29.88
2023-02-23T12:26:22.934Z,31.70
2023-02-23T12:29:04.333Z,31.95
2023-02-23T12:31:51.860Z,29.65
2023-02-23T12:34:28.175Z,29.83
2023-02-23T12:37:28.176Z,29.15
2023-02-23T12:40:04.016Z,30.15
2023-02-23T12:42:44.414Z,30.23
2023-02-23T12:45:29.070Z,29.42
2023-02-23T12:48:08.655Z,31.08
2023-02-23T12:50:52.502Z,31.05
2023-02-23T12:53:37.943Z,31.90
2023-02-23T12:56:33.394Z,30.70
2023-02-23T12:59:14.261Z,31.65
2023-02-23T13:01:54.805Z,31.65
2023-02-23T13:04:28.408Z,32.45
2023-02-23T13:07:14.300Z,31.98
2023-02-23T13:10:13.741Z,32.95
2023-02-23T13:12:49.861Z,32.15
2023-02-23T13:15:35.044Z,31.88
2023-02-23T13:18:30.420Z,31.92
2023-02-23T13:21:07.043Z,32.03
2023-02-23T13:23:50.949Z,31.52
2023-02-23T13:26:21.215Z,31.17
2023-02-23T13:28:48.183Z,32.15
2023-02-23T13:31:28.426Z,32.10
2023-02-23T13:33:58.523Z,31.50
2023-02-23T13:36:28.326Z,32.42
2023-02-23T13:39:02.988Z,31.33
2023-02-23T13:41:42.896Z,31.23
2023-02-23T13:44:31.276Z,30.60
2023-02-23T13:47:20.209Z,32.00
2023-02-23T13:49:54.972Z,30.27
2023-02-23T13:52:33.367Z,29.67
2023-02-23T13:55:04.179Z,30.67
2023-02-23T13:57:32.718Z,30.65
2023-02-23T14:00:00.765Z,31.15
2023-02-23T14:02:38.585Z,32.50
2023-02-23T14:05:11.563Z,29.17
2023-02-23T14:07:43.034Z,29.58
2023-02-23T14:10:21.563Z,28.98
2023-02-23T14:13:13.155Z,27.95
2023-02-23T14:15:40.358Z,29.88
2023-02-23T14:18:20.844Z,28.65
2023-02-23T14:20:47.884Z,29.30
2023-02-23T14:23:18.658Z,29.17
2023-02-23T14:25:52.736Z,29.05
2023-02-23T14:28:26.985Z,29.50
2023-02-23T14:31:05.734Z,29.98
2023-02-23T14:33:42.697Z,29.52
2023-02-23T14:36:21.839Z,30.23
2023-02-23T14:39:08.038Z,30.40
2023-02-23T14:41:50.316Z,30.80
2023-02-23T14:44:34.767Z,30.75
2023-02-23T14:47:12.927Z,30.30
2023-02-23T14:49:47.349Z,35.13
2023-02-23T14:52:40.809Z,35.20
2023-02-23T14:55:11.016Z,34.38
2023-02-23T14:57:40.292Z,32.28
2023-02-23T15:00:26.507Z,32.60
2023-02-23T15:03:05.471Z,35.22
2023-02-23T15:06:02.006Z,36.88
2023-02-23T15:08:31.346Z,35.20
2023-02-23T15:11:14.157Z,34.97
2023-02-23T15:13:43.213Z,34.10
2023-02-23T15:16:16.185Z,33.15
2023-02-23T15:18:44.623Z,34.13
2023-02-23T15:21:16.877Z,32.00
2023-02-23T15:23:45.975Z,32.40
2023-02-23T15:26:31.997Z,31.85
2023-02-23T15:29:16.212Z,30.83
2023-02-23T15:31:51.264Z,30.23
2023-02-23T15:34:21.656Z,31.55
2023-02-23T15:37:06.232Z,31.70
2023-02-23T15:40:05.997Z,31.33
2023-02-23T15:42:44.439Z,29.60
2023-02-23T15:45:23.004Z,30.90
2023-02-23T15:47:53.953Z,32.78
2023-02-23T15:50:41.048Z,33.28
2023-02-23T15:53:33.500Z,32.90
2023-02-23T15:56:16.314Z,33.10
2023-02-23T15:58:56.312Z,30.80
2023-02-23T16:01:26.201Z,30.73
2023-02-23T16:04:12.520Z,29.27
2023-02-23T16:07:08.254Z,27.95
2023-02-23T16:09:38.931Z,28.75
2023-02-23T16:12:12.568Z,29.30
2023-02-23T16:14:59.371Z,30.00
2023-02-23T16:17:27.098Z,28.52
2023-02-23T16:20:13.150Z,29.35
2023-02-23T16:22:41.853Z,28.88
2023-02-23T16:25:14.827Z,33.97
2023-02-23T16:27:43.310Z,32.03
2023-02-23T16:30:23.558Z,34.75
2023-02-23T16:33:24.035Z,33.88
2023-02-23T16:36:15.395Z,36.50
2023-02-23T16:38:57.966Z,48.65
2023-02-23T16:41:29.123Z,52.83
2023-02-23T16:43:59.704Z,45.00
2023-02-23T16:46:31.791Z,40.83
2023-02-23T16:48:59.515Z,67.65
2023-02-23T16:51:28.067Z,76.35
2023-02-23T16:53:55.050Z,40.05
2023-02-23T16:56:22.771Z,37.80
2023-02-23T16:58:57.599Z,38.05
2023-02-23T17:01:25.125Z,39.08
2023-02-23T17:03:53.987Z,36.72
2023-02-23T17:06:22.354Z,38.53
2023-02-23T17:08:57.449Z,51.00
2023-02-23T17:11:25.845Z,61.50
2023-02-23T17:13:52.886Z,54.38
2023-02-23T17:16:20.569Z,36.80
2023-02-23T17:18:48.874Z,39.60
2023-02-23T17:21:23.541Z,33.17
2023-02-23T17:23:51.631Z,31.25
2023-02-23T17:26:22.201Z,31.95
2023-02-23T17:28:49.273Z,33.28
2023-02-23T17:31:18.353Z,32.10
2023-02-23T17:33:46.917Z,33.28
2023-02-23T17:36:16.693Z,32.03
2023-02-23T17:38:46.635Z,32.22
2023-02-23T17:41:17.864Z,34.65
2023-02-23T17:43:44.991Z,32.47
2023-02-23T17:46:13.455Z,30.42
2023-02-23T17:48:49.693Z,30.33
2023-02-23T17:51:19.282Z,31.45
2023-02-23T17:53:46.860Z,34.28
2023-02-23T17:56:15.936Z,32.90
2023-02-23T17:58:43.127Z,34.22
2023-02-23T18:01:10.672Z,35.55
2023-02-23T18:03:38.196Z,34.33
2023-02-23T18:06:11.559Z,34.20
2023-02-23T18:08:40.447Z,35.35
2023-02-23T18:11:08.344Z,32.35
2023-02-23T18:13:35.744Z,32.78
2023-02-23T18:16:09.399Z,34.30
2023-02-23T18:18:42.368Z,34.30
2023-02-23T18:21:16.577Z,32.10
2023-02-23T18:23:43.967Z,33.40
2023-02-23T18:26:14.484Z,35.80
2023-02-23T18:28:44.571Z,35.28
2023-02-23T18:31:21.807Z,35.75
2023-02-23T18:33:53.071Z,34.95
2023-02-23T18:36:24.420Z,35.88
2023-02-23T18:38:51.776Z,35.97
2023-02-23T18:41:19.917Z,37.08
2023-02-23T18:43:47.379Z,37.65
2023-02-23T18:46:15.466Z,37.13
2023-02-23T18:48:43.412Z,37.55
2023-02-23T18:51:14.572Z,38.85
2023-02-23T18:53:42.025Z,38.38
2023-02-23T18:56:16.517Z,38.80
2023-02-23T18:58:45.084Z,37.80
2023-02-23T19:01:19.096Z,38.67
2023-02-23T19:03:48.123Z,39.28
2023-02-23T19:06:16.499Z,37.58
2023-02-23T19:08:44.402Z,38.17
2023-02-23T19:11:12.099Z,37.63
2023-02-23T19:13:39.330Z,35.30
2023-02-23T19:16:09.737Z,36.45
2023-02-23T19:18:36.859Z,33.83
2023-02-23T19:21:04.599Z,35.45
2023-02-23T19:23:31.836Z,34.83
2023-02-23T19:26:02.507Z,34.58
2023-02-23T19:28:30.317Z,33.42
2023-02-23T19:31:06.029Z,35.75
2023-02-23T19:33:33.548Z,36.03
2023-02-23T19:36:05.474Z,33.65
2023-02-23T19:38:33.412Z,35.70
2023-02-23T19:41:00.794Z,35.83
2023-02-23T19:43:27.841Z,35.13
2023-02-23T19:45:55.474Z,34.78
2023-02-23T19:48:25.273Z,34.97
2023-02-23T19:50:53.775Z,35.78
2023-02-23T19:53:20.870Z,39.47
2023-02-23T19:55:49.638Z,39.58
2023-02-23T19:58:16.567Z,37.83
2023-02-23T20:00:45.248Z,37.00
2023-02-23T20:03:14.214Z,37.97
2023-02-23T20:05:42.250Z,37.83
2023-02-23T20:08:10.086Z,39.72
2023-02-23T20:10:42.621Z,37.25
2023-02-23T20:13:10.712Z,35.55
2023-02-23T20:15:38.050Z,37.50
2023-02-23T20:18:07.017Z,36.97
2023-02-23T20:20:35.894Z,36.25
2023-02-23T20:23:07.734Z,36.65
2023-02-23T20:25:35.919Z,37.55
2023-02-23T20:28:03.860Z,37.10
2023-02-23T20:30:31.575Z,37.08
2023-02-23T20:32:58.743Z,37.13
2023-02-23T20:35:26.322Z,37.58
2023-02-23T20:37:53.653Z,36.67
2023-02-23T20:40:24.021Z,35.28
2023-02-23T20:42:51.584Z,36.10
2023-02-23T20:45:22.468Z,37.30
2023-02-23T20:47:53.562Z,35.97
2023-02-23T20:50:28.732Z,38.40
2023-02-23T20:52:55.972Z,37.60
2023-02-23T20:55:27.064Z,37.88
2023-02-23T20:57:55.533Z,35.70
2023-02-23T21:00:32.355Z,36.97
2023-02-23T21:03:01.551Z,35.42
2023-02-23T21:05:32.118Z,37.90
2023-02-23T21:08:05.148Z,36.88
2023-02-23T21:13:01.251Z,34.25
2023-02-23T21:15:30.057Z,36.78
2023-02-23T21:17:58.591Z,35.53
2023-02-23T21:20:27.888Z,37.55
2023-02-23T21:22:55.446Z,37.45
2023-02-23T21:25:25.276Z,37.88
2023-02-23T21:27:54.119Z,40.75
2023-02-23T21:30:28.402Z,42.75
2023-02-23T21:32:56.542Z,41.17
2023-02-23T21:35:25.022Z,41.60
2023-02-23T21:37:52.424Z,41.10
2023-02-23T21:40:21.167Z,40.60
2023-02-23T21:42:49.647Z,42.38
2023-02-23T21:45:18.467Z,39.58
2023-02-23T21:47:46.848Z,43.50
2023-02-23T21:50:17.431Z,42.58
2023-02-23T21:52:48.499Z,42.45
2023-02-23T21:55:24.502Z,42.42
2023-02-23T21:57:52.310Z,42.55
2023-02-23T22:00:21.464Z,49.05
2023-02-23T22:02:49.304Z,46.15
2023-02-23T22:05:18.758Z,45.92
2023-02-23T22:07:53.229Z,42.58
2023-02-23T22:10:22.520Z,42.42
2023-02-23T22:12:50.409Z,45.90
2023-02-23T22:15:17.695Z,45.40
2023-02-23T22:17:44.732Z,46.05
2023-02-23T22:20:12.731Z,46.45
2023-02-23T22:22:39.657Z,45.13
2023-02-23T22:25:08.053Z,45.13
2023-02-23T22:27:35.094Z,45.08
2023-02-23T22:30:04.928Z,45.50
2023-02-23T22:32:33.004Z,45.63
2023-02-23T22:35:01.515Z,46.95
2023-02-23T22:37:29.810Z,46.03
2023-02-23T22:40:16.669Z,46.75
2023-02-23T22:42:48.055Z,44.63
2023-02-23T22:45:16.091Z,44.97
2023-02-23T22:47:43.244Z,46.30
2023-02-23T22:50:13.909Z,47.10
2023-02-23T22:52:43.046Z,45.65
2023-02-23T22:55:11.243Z,47.05
2023-02-23T22:57:39.782Z,45.58
2023-02-23T23:00:10.359Z,46.40
2023-02-23T23:02:37.412Z,46.60
2023-02-23T23:05:05.174Z,47.30
2023-02-23T23:07:32.315Z,45.10
2023-02-23T23:10:03.891Z,44.05
2023-02-23T23:12:31.847Z,43.97
2023-02-23T23:15:01.252Z,46.78
2023-02-23T23:17:31.811Z,44.92
2023-02-23T23:20:03.569Z,47.05
2023-02-23T23:22:33.248Z,47.08
2023-02-23T23:25:00.446Z,49.47
2023-02-23T23:27:27.355Z,48.45
2023-02-23T23:29:54.939Z,48.17
2023-02-23T23:32:27.526Z,46.08
2023-02-23T23:34:57.480Z,46.03
2023-02-23T23:37:28.959Z,47.35
2023-02-23T23:39:59.265Z,46.88
2023-02-23T23:42:26.689Z,46.65
2023-02-23T23:44:56.857Z,44.95
2023-02-23T23:47:23.915Z,46.70
2023-02-23T23:49:53.265Z,44.58
2023-02-23T23:52:20.985Z,47.47
2023-02-23T23:54:48.315Z,45.10
2023-02-23T23:57:15.223Z,43.90
2023-02-23T23:59:45.813Z,44.33
